Fsl New York — 9VBQ8 — position and weather

sailwx.info

Track history (hours):
 
Tides and Currents Weather Stations Pressure Air Temp Water Temp Dewpoint Dewpoint Depression Visibility Wind Speed Wind Dir Waves Ship Positions

Fsl New York

Last reported at 2015-Jun-18 01:30 UTC. Time now 2015-Jul-02 09:50 UTC.
Position N 29°29' W 094°52'.
Warning: this ship's position is 14 days out of date.

Length 138 m; draft 9.9 m.

Type: Tanker. MMSI: 565174000.

Date/timePositionNaut miles runAvg speedWind from/ knotsBaromVisibWave heightAir tempDewpointWater temp
2015-Jun-18 01:30N 29°29' W 094°52'1010.8
2015-Jun-18 00:33N 29°37' W 094°59'3 2.5
2015-Jun-17 23:33N 29°37' W 095°01'0 0.0
2015-Jun-17 22:33N 29°37' W 095°01'0 0.0
2015-Jun-17 21:33N 29°37' W 095°01'0 0.0
2015-Jun-17 20:33N 29°37' W 095°01'0 0.0
2015-Jun-17 19:33N 29°37' W 095°01'0 0.0
2015-Jun-17 18:33N 29°37' W 095°01'0 0.0
2015-Jun-17 17:30N 29°37' W 095°01'0 0.0
2015-Jun-17 13:04N 29°37' W 095°01'0 0.0
2015-Jun-17 12:31N 29°37' W 095°01'0 0.0
2015-Jun-17 11:31N 29°37' W 095°01'0 0.0
2015-Jun-17 10:31N 29°37' W 095°01'0 0.0
2015-Jun-17 09:31N 29°37' W 095°01'0 0.0
2015-Jun-17 08:31N 29°37' W 095°01'0 0.0
2015-Jun-17 07:31N 29°37' W 095°01'0 0.0
2015-Jun-17 06:31N 29°37' W 095°01'0 0.0
2015-Jun-17 05:31N 29°37' W 095°01'0 0.0
2015-Jun-17 04:31N 29°37' W 095°01'0 0.0
2015-Jun-17 03:25N 29°37' W 095°01'0 0.0
2015-Jun-17 02:31N 29°37' W 095°01'0 0.0
2015-Jun-17 01:31N 29°37' W 095°01'0 0.0
2015-Jun-17 00:31N 29°37' W 095°01'0 0.0
2015-Jun-16 23:31N 29°37' W 095°01'0 0.0
2015-Jun-16 22:31N 29°37' W 095°01'0 0.0
2015-Jun-16 21:31N 29°37' W 095°01'1 0.0
2015-Jun-15 19:33N 29°37' W 095°01'10 9.5
2015-Jun-15 18:33N 29°30' W 094°53'8 1.0
2015-Jun-15 10:09N 29°23' W 094°49'610.0
2015-Jun-15 09:33N 29°28' W 094°51'1111.3
2015-Jun-15 08:33N 29°38' W 094°58'8 8.4
2015-Jun-15 07:33N 29°45' W 095°04'2 0.1
2015-Jun-14 13:04N 29°46' W 095°05'4 8.1
2015-Jun-14 12:33N 29°43' W 095°01'1111.1
2015-Jun-14 11:33N 29°34' W 094°55'13 1.0
2015-Jun-13 22:32N 29°22' W 094°48'1312.9
2015-Jun-13 21:33N 29°34' W 094°55'1111.0
2015-Jun-13 20:34N 29°43' W 095°01'4 0.1
2015-Jun-12 13:31N 29°45' W 095°06'7 6.9
2015-Jun-12 12:33N 29°42' W 094°59'1212.1
2015-Jun-12 11:33N 29°31' W 094°53'10 1.2
2015-Jun-12 03:33N 29°22' W 094°48'1312.8
2015-Jun-12 02:33N 29°33' W 094°55'1010.2
2015-Jun-12 01:34N 29°42' W 095°01'6 5.9
2015-Jun-12 00:33N 29°44' W 095°07'0 0.0
2015-Jun-10 04:24N 29°44' W 095°07'5 5.8
2015-Jun-10 03:33N 29°44' W 095°02'9 8.6
2015-Jun-10 02:33N 29°36' W 094°57'1411.6
2015-Jun-10 01:20N 29°24' W 094°49'2 0.2
2015-Jun-09 16:29N 29°22' W 094°48'1111.9
2015-Jun-09 15:33N 29°32' W 094°54'8 8.0
2015-Jun-09 14:33N 29°37' W 095°01'0 0.0
2015-Jun-09 13:33N 29°37' W 095°01'0 0.0
2015-Jun-08 11:25N 29°37' W 095°01'1 1.2
2015-Jun-08 10:33N 29°37' W 095°00'10 9.8
2015-Jun-08 09:33N 29°30' W 094°52'  
Track history (hours):
 
Tides and Currents Weather Stations Pressure Air Temp Water Temp Dewpoint Dewpoint Depression Visibility Wind Speed Wind Dir Waves Ship Positions

Fsl New York

Last reported at 2015-Jun-18 01:30 UTC. Time now 2015-Jul-02 09:50 UTC.
Position N 29°29' W 094°52'.
Warning: this ship's position is 14 days out of date.

Length 138 m; draft 9.9 m.

Type: Tanker. MMSI: 565174000.

Date/timePositionNaut miles runAvg speedWind from/ knotsBaromVisibWave heightAir tempDewpointWater temp
2015-Jun-18 01:30N 29°29' W 094°52'1010.8
2015-Jun-18 00:33N 29°37' W 094°59'3 2.5
2015-Jun-17 23:33N 29°37' W 095°01'0 0.0
2015-Jun-17 22:33N 29°37' W 095°01'0 0.0
2015-Jun-17 21:33N 29°37' W 095°01'0 0.0
2015-Jun-17 20:33N 29°37' W 095°01'0 0.0
2015-Jun-17 19:33N 29°37' W 095°01'0 0.0
2015-Jun-17 18:33N 29°37' W 095°01'0 0.0
2015-Jun-17 17:30N 29°37' W 095°01'0 0.0
2015-Jun-17 13:04N 29°37' W 095°01'0 0.0
2015-Jun-17 12:31N 29°37' W 095°01'0 0.0
2015-Jun-17 11:31N 29°37' W 095°01'0 0.0
2015-Jun-17 10:31N 29°37' W 095°01'0 0.0
2015-Jun-17 09:31N 29°37' W 095°01'0 0.0
2015-Jun-17 08:31N 29°37' W 095°01'0 0.0
2015-Jun-17 07:31N 29°37' W 095°01'0 0.0
2015-Jun-17 06:31N 29°37' W 095°01'0 0.0
2015-Jun-17 05:31N 29°37' W 095°01'0 0.0
2015-Jun-17 04:31N 29°37' W 095°01'0 0.0
2015-Jun-17 03:25N 29°37' W 095°01'0 0.0
2015-Jun-17 02:31N 29°37' W 095°01'0 0.0
2015-Jun-17 01:31N 29°37' W 095°01'0 0.0
2015-Jun-17 00:31N 29°37' W 095°01'0 0.0
2015-Jun-16 23:31N 29°37' W 095°01'0 0.0
2015-Jun-16 22:31N 29°37' W 095°01'0 0.0
2015-Jun-16 21:31N 29°37' W 095°01'1 0.0
2015-Jun-15 19:33N 29°37' W 095°01'10 9.5
2015-Jun-15 18:33N 29°30' W 094°53'8 1.0
2015-Jun-15 10:09N 29°23' W 094°49'610.0
2015-Jun-15 09:33N 29°28' W 094°51'1111.3
2015-Jun-15 08:33N 29°38' W 094°58'8 8.4
2015-Jun-15 07:33N 29°45' W 095°04'2 0.1
2015-Jun-14 13:04N 29°46' W 095°05'4 8.1
2015-Jun-14 12:33N 29°43' W 095°01'1111.1
2015-Jun-14 11:33N 29°34' W 094°55'13 1.0
2015-Jun-13 22:32N 29°22' W 094°48'1312.9
2015-Jun-13 21:33N 29°34' W 094°55'1111.0
2015-Jun-13 20:34N 29°43' W 095°01'4 0.1
2015-Jun-12 13:31N 29°45' W 095°06'7 6.9
2015-Jun-12 12:33N 29°42' W 094°59'1212.1
2015-Jun-12 11:33N 29°31' W 094°53'10 1.2
2015-Jun-12 03:33N 29°22' W 094°48'1312.8
2015-Jun-12 02:33N 29°33' W 094°55'1010.2
2015-Jun-12 01:34N 29°42' W 095°01'6 5.9
2015-Jun-12 00:33N 29°44' W 095°07'0 0.0
2015-Jun-10 04:24N 29°44' W 095°07'5 5.8
2015-Jun-10 03:33N 29°44' W 095°02'9 8.6
2015-Jun-10 02:33N 29°36' W 094°57'1411.6
2015-Jun-10 01:20N 29°24' W 094°49'2 0.2
2015-Jun-09 16:29N 29°22' W 094°48'1111.9
2015-Jun-09 15:33N 29°32' W 094°54'8 8.0
2015-Jun-09 14:33N 29°37' W 095°01'0 0.0
2015-Jun-09 13:33N 29°37' W 095°01'0 0.0
2015-Jun-08 11:25N 29°37' W 095°01'1 1.2
2015-Jun-08 10:33N 29°37' W 095°00'10 9.8
2015-Jun-08 09:33N 29°30' W 094°52'  

Dump ship's entire track history